sensor_id;sensor_type;location;lat;lon;timestamp;P1;durP1;ratioP1;P2;durP2;ratioP2
55021;SDS011;68328;35.990;-86.756;2023-04-15T00:01:47;9;;;9;;
55021;SDS011;68328;35.990;-86.756;2023-04-15T00:04:13;10;;;10;;
55021;SDS011;68328;35.990;-86.756;2023-04-15T00:06:38;6;;;6;;
55021;SDS011;68328;35.990;-86.756;2023-04-15T00:09:03;9;;;9;;
55021;SDS011;68328;35.990;-86.756;2023-04-15T00:11:30;9;;;9;;
55021;SDS011;68328;35.990;-86.756;2023-04-15T00:13:54;9;;;9;;
55021;SDS011;68328;35.990;-86.756;2023-04-15T00:16:20;10;;;10;;
55021;SDS011;68328;35.990;-86.756;2023-04-15T00:18:46;10;;;10;;
55021;SDS011;68328;35.990;-86.756;2023-04-15T00:21:11;9;;;9;;
55021;SDS011;68328;35.990;-86.756;2023-04-15T00:23:37;9;;;9;;
55021;SDS011;68328;35.990;-86.756;2023-04-15T00:26:03;10;;;10;;
55021;SDS011;68328;35.990;-86.756;2023-04-15T00:28:28;12;;;11;;
55021;SDS011;68328;35.990;-86.756;2023-04-15T00:30:54;9;;;9;;
55021;SDS011;68328;35.990;-86.756;2023-04-15T00:33:19;11;;;11;;
55021;SDS011;68328;35.990;-86.756;2023-04-15T00:35:44;10;;;10;;
55021;SDS011;68328;35.990;-86.756;2023-04-15T00:38:10;14;;;14;;
55021;SDS011;68328;35.990;-86.756;2023-04-15T00:40:36;13;;;12;;
55021;SDS011;68328;35.990;-86.756;2023-04-15T00:43:01;9;;;9;;
55021;SDS011;68328;35.990;-86.756;2023-04-15T00:45:27;13;;;11;;
55021;SDS011;68328;35.990;-86.756;2023-04-15T00:50:17;10;;;10;;
55021;SDS011;68328;35.990;-86.756;2023-04-15T00:55:09;8;;;8;;
55021;SDS011;68328;35.990;-86.756;2023-04-15T00:57:33;10;;;10;;
55021;SDS011;68328;35.990;-86.756;2023-04-15T00:59:59;9;;;9;;
55021;SDS011;68328;35.990;-86.756;2023-04-15T01:02:24;10;;;9;;
55021;SDS011;68328;35.990;-86.756;2023-04-15T01:04:49;9;;;9;;
55021;SDS011;68328;35.990;-86.756;2023-04-15T01:07:14;10;;;9;;
55021;SDS011;68328;35.990;-86.756;2023-04-15T01:09:40;10;;;10;;
55021;SDS011;68328;35.990;-86.756;2023-04-15T01:12:05;11;;;9;;
55021;SDS011;68328;35.990;-86.756;2023-04-15T01:14:31;10;;;10;;
55021;SDS011;68328;35.990;-86.756;2023-04-15T01:16:57;11;;;11;;
55021;SDS011;68328;35.990;-86.756;2023-04-15T01:19:22;7;;;7;;
55021;SDS011;68328;35.990;-86.756;2023-04-15T01:21:47;9;;;9;;
55021;SDS011;68328;35.990;-86.756;2023-04-15T01:24:12;9;;;9;;
55021;SDS011;68328;35.990;-86.756;2023-04-15T01:26:39;6;;;6;;
55021;SDS011;68328;35.990;-86.756;2023-04-15T01:29:03;6;;;6;;
55021;SDS011;68328;35.990;-86.756;2023-04-15T01:31:28;10;;;10;;
55021;SDS011;68328;35.990;-86.756;2023-04-15T01:33:54;10;;;10;;
55021;SDS011;68328;35.990;-86.756;2023-04-15T01:36:20;9;;;9;;
55021;SDS011;68328;35.990;-86.756;2023-04-15T01:38:45;9;;;7;;
55021;SDS011;68328;35.990;-86.756;2023-04-15T01:41:10;9;;;8;;
55021;SDS011;68328;35.990;-86.756;2023-04-15T01:43:36;10;;;10;;
55021;SDS011;68328;35.990;-86.756;2023-04-15T01:46:01;12;;;11;;
55021;SDS011;68328;35.990;-86.756;2023-04-15T01:48:27;9;;;8;;
55021;SDS011;68328;35.990;-86.756;2023-04-15T01:50:53;9;;;9;;
55021;SDS011;68328;35.990;-86.756;2023-04-15T01:53:17;9;;;9;;
55021;SDS011;68328;35.990;-86.756;2023-04-15T01:55:42;9;;;9;;
55021;SDS011;68328;35.990;-86.756;2023-04-15T01:58:07;10;;;10;;
55021;SDS011;68328;35.990;-86.756;2023-04-15T02:00:33;10;;;9;;
55021;SDS011;68328;35.990;-86.756;2023-04-15T02:02:57;9;;;9;;
55021;SDS011;68328;35.990;-86.756;2023-04-15T02:05:23;9;;;9;;
55021;SDS011;68328;35.990;-86.756;2023-04-15T02:07:48;9;;;9;;
55021;SDS011;68328;35.990;-86.756;2023-04-15T02:10:13;7;;;7;;
55021;SDS011;68328;35.990;-86.756;2023-04-15T02:12:39;9;;;9;;
55021;SDS011;68328;35.990;-86.756;2023-04-15T02:15:04;7;;;7;;
55021;SDS011;68328;35.990;-86.756;2023-04-15T02:17:29;12;;;11;;
55021;SDS011;68328;35.990;-86.756;2023-04-15T02:19:54;9;;;9;;
55021;SDS011;68328;35.990;-86.756;2023-04-15T02:22:19;11;;;11;;
55021;SDS011;68328;35.990;-86.756;2023-04-15T02:24:45;10;;;9;;
55021;SDS011;68328;35.990;-86.756;2023-04-15T02:27:14;8;;;8;;
55021;SDS011;68328;35.990;-86.756;2023-04-15T02:29:36;12;;;11;;
55021;SDS011;68328;35.990;-86.756;2023-04-15T02:32:01;8;;;8;;
55021;SDS011;68328;35.990;-86.756;2023-04-15T02:34:27;10;;;10;;
55021;SDS011;68328;35.990;-86.756;2023-04-15T02:36:53;9;;;9;;
55021;SDS011;68328;35.990;-86.756;2023-04-15T02:39:18;9;;;9;;
55021;SDS011;68328;35.990;-86.756;2023-04-15T02:41:43;12;;;12;;
55021;SDS011;68328;35.990;-86.756;2023-04-15T02:44:08;10;;;10;;
55021;SDS011;68328;35.990;-86.756;2023-04-15T02:46:34;11;;;11;;
55021;SDS011;68328;35.990;-86.756;2023-04-15T02:48:59;10;;;10;;
55021;SDS011;68328;35.990;-86.756;2023-04-15T02:51:24;12;;;12;;
55021;SDS011;68328;35.990;-86.756;2023-04-15T02:53:49;10;;;10;;
55021;SDS011;68328;35.990;-86.756;2023-04-15T02:56:15;9;;;9;;
55021;SDS011;68328;35.990;-86.756;2023-04-15T02:58:40;10;;;10;;
55021;SDS011;68328;35.990;-86.756;2023-04-15T03:01:05;12;;;12;;
55021;SDS011;68328;35.990;-86.756;2023-04-15T03:03:31;11;;;11;;
55021;SDS011;68328;35.990;-86.756;2023-04-15T03:05:57;10;;;9;;
55021;SDS011;68328;35.990;-86.756;2023-04-15T03:08:21;9;;;9;;
55021;SDS011;68328;35.990;-86.756;2023-04-15T03:10:48;9;;;9;;
55021;SDS011;68328;35.990;-86.756;2023-04-15T03:13:13;10;;;9;;
55021;SDS011;68328;35.990;-86.756;2023-04-15T03:15:37;9;;;8;;
55021;SDS011;68328;35.990;-86.756;2023-04-15T03:18:04;7;;;7;;
55021;SDS011;68328;35.990;-86.756;2023-04-15T03:20:29;9;;;9;;
55021;SDS011;68328;35.990;-86.756;2023-04-15T03:22:53;8;;;8;;
55021;SDS011;68328;35.990;-86.756;2023-04-15T03:25:19;12;;;10;;
55021;SDS011;68328;35.990;-86.756;2023-04-15T03:27:44;8;;;8;;
55021;SDS011;68328;35.990;-86.756;2023-04-15T03:30:09;11;;;9;;
55021;SDS011;68328;35.990;-86.756;2023-04-15T03:32:34;9;;;8;;
55021;SDS011;68328;35.990;-86.756;2023-04-15T03:34:59;9;;;9;;
55021;SDS011;68328;35.990;-86.756;2023-04-15T03:37:24;8;;;8;;
55021;SDS011;68328;35.990;-86.756;2023-04-15T03:39:50;8;;;8;;
55021;SDS011;68328;35.990;-86.756;2023-04-15T03:42:15;11;;;11;;
55021;SDS011;68328;35.990;-86.756;2023-04-15T03:44:40;10;;;10;;
55021;SDS011;68328;35.990;-86.756;2023-04-15T03:47:06;8;;;8;;
55021;SDS011;68328;35.990;-86.756;2023-04-15T03:49:31;11;;;9;;
55021;SDS011;68328;35.990;-86.756;2023-04-15T03:51:57;10;;;10;;
55021;SDS011;68328;35.990;-86.756;2023-04-15T03:54:22;13;;;11;;
55021;SDS011;68328;35.990;-86.756;2023-04-15T03:56:47;9;;;9;;
55021;SDS011;68328;35.990;-86.756;2023-04-15T03:59:13;9;;;9;;
55021;SDS011;68328;35.990;-86.756;2023-04-15T04:01:38;10;;;10;;
55021;SDS011;68328;35.990;-86.756;2023-04-15T04:04:04;8;;;8;;
55021;SDS011;68328;35.990;-86.756;2023-04-15T04:06:29;9;;;9;;
55021;SDS011;68328;35.990;-86.756;2023-04-15T04:08:54;10;;;8;;
55021;SDS011;68328;35.990;-86.756;2023-04-15T04:11:19;10;;;10;;
55021;SDS011;68328;35.990;-86.756;2023-04-15T04:13:45;8;;;8;;
55021;SDS011;68328;35.990;-86.756;2023-04-15T04:16:11;9;;;9;;
55021;SDS011;68328;35.990;-86.756;2023-04-15T04:18:36;9;;;9;;
55021;SDS011;68328;35.990;-86.756;2023-04-15T04:21:01;15;;;15;;
55021;SDS011;68328;35.990;-86.756;2023-04-15T04:23:27;9;;;9;;
55021;SDS011;68328;35.990;-86.756;2023-04-15T04:25:53;11;;;11;;
55021;SDS011;68328;35.990;-86.756;2023-04-15T04:28:17;11;;;11;;
55021;SDS011;68328;35.990;-86.756;2023-04-15T04:30:43;10;;;10;;
55021;SDS011;68328;35.990;-86.756;2023-04-15T04:33:08;9;;;9;;
55021;SDS011;68328;35.990;-86.756;2023-04-15T04:35:33;12;;;9;;
55021;SDS011;68328;35.990;-86.756;2023-04-15T04:37:59;10;;;9;;
55021;SDS011;68328;35.990;-86.756;2023-04-15T04:40:24;11;;;11;;
55021;SDS011;68328;35.990;-86.756;2023-04-15T04:42:49;12;;;11;;
55021;SDS011;68328;35.990;-86.756;2023-04-15T04:45:14;10;;;9;;
55021;SDS011;68328;35.990;-86.756;2023-04-15T04:47:40;12;;;12;;
55021;SDS011;68328;35.990;-86.756;2023-04-15T04:50:07;10;;;9;;
55021;SDS011;68328;35.990;-86.756;2023-04-15T04:52:31;10;;;9;;
55021;SDS011;68328;35.990;-86.756;2023-04-15T04:54:56;12;;;11;;
55021;SDS011;68328;35.990;-86.756;2023-04-15T04:57:21;7;;;7;;
55021;SDS011;68328;35.990;-86.756;2023-04-15T04:59:47;17;;;17;;
55021;SDS011;68328;35.990;-86.756;2023-04-15T05:02:13;10;;;10;;
55021;SDS011;68328;35.990;-86.756;2023-04-15T05:04:38;10;;;10;;
55021;SDS011;68328;35.990;-86.756;2023-04-15T05:07:03;11;;;10;;
55021;SDS011;68328;35.990;-86.756;2023-04-15T05:09:28;11;;;11;;
55021;SDS011;68328;35.990;-86.756;2023-04-15T05:11:54;12;;;12;;
55021;SDS011;68328;35.990;-86.756;2023-04-15T05:14:20;15;;;13;;
55021;SDS011;68328;35.990;-86.756;2023-04-15T05:16:45;9;;;9;;
55021;SDS011;68328;35.990;-86.756;2023-04-15T05:19:12;11;;;11;;
55021;SDS011;68328;35.990;-86.756;2023-04-15T05:21:36;10;;;10;;
55021;SDS011;68328;35.990;-86.756;2023-04-15T05:24:02;11;;;11;;
55021;SDS011;68328;35.990;-86.756;2023-04-15T05:26:27;12;;;12;;
55021;SDS011;68328;35.990;-86.756;2023-04-15T05:28:53;9;;;9;;
55021;SDS011;68328;35.990;-86.756;2023-04-15T05:31:19;12;;;12;;
55021;SDS011;68328;35.990;-86.756;2023-04-15T05:33:43;12;;;12;;
55021;SDS011;68328;35.990;-86.756;2023-04-15T05:36:09;9;;;9;;
55021;SDS011;68328;35.990;-86.756;2023-04-15T05:38:34;10;;;10;;
55021;SDS011;68328;35.990;-86.756;2023-04-15T05:40:59;13;;;13;;
55021;SDS011;68328;35.990;-86.756;2023-04-15T05:43:25;11;;;11;;
55021;SDS011;68328;35.990;-86.756;2023-04-15T05:45:50;10;;;10;;
55021;SDS011;68328;35.990;-86.756;2023-04-15T05:48:16;18;;;17;;
55021;SDS011;68328;35.990;-86.756;2023-04-15T05:50:41;8;;;8;;
55021;SDS011;68328;35.990;-86.756;2023-04-15T05:53:06;12;;;12;;
55021;SDS011;68328;35.990;-86.756;2023-04-15T05:55:32;9;;;9;;
55021;SDS011;68328;35.990;-86.756;2023-04-15T05:57:57;10;;;10;;
55021;SDS011;68328;35.990;-86.756;2023-04-15T06:00:22;12;;;12;;
55021;SDS011;68328;35.990;-86.756;2023-04-15T06:02:47;11;;;10;;
55021;SDS011;68328;35.990;-86.756;2023-04-15T06:05:13;12;;;12;;
55021;SDS011;68328;35.990;-86.756;2023-04-15T06:07:39;14;;;12;;
55021;SDS011;68328;35.990;-86.756;2023-04-15T06:10:04;8;;;8;;
55021;SDS011;68328;35.990;-86.756;2023-04-15T06:12:29;10;;;10;;
55021;SDS011;68328;35.990;-86.756;2023-04-15T06:14:54;11;;;11;;
55021;SDS011;68328;35.990;-86.756;2023-04-15T06:17:19;11;;;11;;
55021;SDS011;68328;35.990;-86.756;2023-04-15T06:19:45;12;;;12;;
55021;SDS011;68328;35.990;-86.756;2023-04-15T06:22:10;10;;;10;;
55021;SDS011;68328;35.990;-86.756;2023-04-15T06:24:35;11;;;11;;
55021;SDS011;68328;35.990;-86.756;2023-04-15T06:27:00;13;;;13;;
55021;SDS011;68328;35.990;-86.756;2023-04-15T06:29:26;11;;;11;;
55021;SDS011;68328;35.990;-86.756;2023-04-15T06:31:51;12;;;12;;
55021;SDS011;68328;35.990;-86.756;2023-04-15T06:34:17;16;;;16;;
55021;SDS011;68328;35.990;-86.756;2023-04-15T06:36:42;13;;;13;;
55021;SDS011;68328;35.990;-86.756;2023-04-15T06:39:08;12;;;12;;
55021;SDS011;68328;35.990;-86.756;2023-04-15T06:41:33;11;;;11;;
55021;SDS011;68328;35.990;-86.756;2023-04-15T06:43:58;13;;;12;;
55021;SDS011;68328;35.990;-86.756;2023-04-15T06:46:24;11;;;11;;
55021;SDS011;68328;35.990;-86.756;2023-04-15T06:48:49;13;;;11;;
55021;SDS011;68328;35.990;-86.756;2023-04-15T06:51:14;12;;;12;;
55021;SDS011;68328;35.990;-86.756;2023-04-15T06:53:39;13;;;13;;
55021;SDS011;68328;35.990;-86.756;2023-04-15T06:56:05;13;;;13;;
55021;SDS011;68328;35.990;-86.756;2023-04-15T06:58:31;12;;;11;;
55021;SDS011;68328;35.990;-86.756;2023-04-15T07:00:56;12;;;12;;
55021;SDS011;68328;35.990;-86.756;2023-04-15T07:03:21;14;;;14;;
55021;SDS011;68328;35.990;-86.756;2023-04-15T07:05:47;13;;;13;;
55021;SDS011;68328;35.990;-86.756;2023-04-15T07:08:12;13;;;13;;
55021;SDS011;68328;35.990;-86.756;2023-04-15T07:10:37;11;;;11;;
55021;SDS011;68328;35.990;-86.756;2023-04-15T07:13:03;12;;;12;;
55021;SDS011;68328;35.990;-86.756;2023-04-15T07:15:27;16;;;16;;
55021;SDS011;68328;35.990;-86.756;2023-04-15T07:17:54;12;;;12;;
55021;SDS011;68328;35.990;-86.756;2023-04-15T07:20:19;12;;;12;;
55021;SDS011;68328;35.990;-86.756;2023-04-15T07:22:44;11;;;11;;
55021;SDS011;68328;35.990;-86.756;2023-04-15T07:25:10;14;;;13;;
55021;SDS011;68328;35.990;-86.756;2023-04-15T07:27:35;13;;;13;;
55021;SDS011;68328;35.990;-86.756;2023-04-15T07:30:01;13;;;13;;
55021;SDS011;68328;35.990;-86.756;2023-04-15T07:32:27;15;;;13;;
55021;SDS011;68328;35.990;-86.756;2023-04-15T07:34:52;13;;;13;;
55021;SDS011;68328;35.990;-86.756;2023-04-15T07:37:17;14;;;14;;
55021;SDS011;68328;35.990;-86.756;2023-04-15T07:39:42;14;;;14;;
55021;SDS011;68328;35.990;-86.756;2023-04-15T07:42:08;16;;;16;;
55021;SDS011;68328;35.990;-86.756;2023-04-15T07:44:33;14;;;14;;
55021;SDS011;68328;35.990;-86.756;2023-04-15T07:46:59;15;;;14;;
55021;SDS011;68328;35.990;-86.756;2023-04-15T07:49:24;16;;;16;;
55021;SDS011;68328;35.990;-86.756;2023-04-15T07:51:49;12;;;12;;
55021;SDS011;68328;35.990;-86.756;2023-04-15T07:54:15;14;;;14;;
55021;SDS011;68328;35.990;-86.756;2023-04-15T07:56:40;15;;;15;;
55021;SDS011;68328;35.990;-86.756;2023-04-15T07:59:05;12;;;12;;
55021;SDS011;68328;35.990;-86.756;2023-04-15T08:01:32;13;;;13;;
55021;SDS011;68328;35.990;-86.756;2023-04-15T08:03:56;12;;;12;;
55021;SDS011;68328;35.990;-86.756;2023-04-15T08:06:22;17;;;16;;
55021;SDS011;68328;35.990;-86.756;2023-04-15T08:08:46;17;;;14;;
55021;SDS011;68328;35.990;-86.756;2023-04-15T08:11:11;14;;;14;;
55021;SDS011;68328;35.990;-86.756;2023-04-15T08:13:37;14;;;14;;
55021;SDS011;68328;35.990;-86.756;2023-04-15T08:18:28;16;;;15;;
55021;SDS011;68328;35.990;-86.756;2023-04-15T08:20:53;14;;;14;;
55021;SDS011;68328;35.990;-86.756;2023-04-15T08:23:18;14;;;14;;
55021;SDS011;68328;35.990;-86.756;2023-04-15T08:25:43;15;;;14;;
55021;SDS011;68328;35.990;-86.756;2023-04-15T08:28:09;15;;;15;;
55021;SDS011;68328;35.990;-86.756;2023-04-15T08:30:35;14;;;14;;
55021;SDS011;68328;35.990;-86.756;2023-04-15T08:33:00;14;;;14;;
55021;SDS011;68328;35.990;-86.756;2023-04-15T08:35:26;14;;;14;;
55021;SDS011;68328;35.990;-86.756;2023-04-15T08:37:50;14;;;14;;
55021;SDS011;68328;35.990;-86.756;2023-04-15T08:40:15;14;;;14;;
55021;SDS011;68328;35.990;-86.756;2023-04-15T08:42:43;12;;;12;;
55021;SDS011;68328;35.990;-86.756;2023-04-15T08:45:06;16;;;16;;
55021;SDS011;68328;35.990;-86.756;2023-04-15T08:47:31;15;;;15;;
55021;SDS011;68328;35.990;-86.756;2023-04-15T08:49:57;17;;;17;;
55021;SDS011;68328;35.990;-86.756;2023-04-15T08:52:23;14;;;13;;
55021;SDS011;68328;35.990;-86.756;2023-04-15T08:54:48;17;;;15;;
55021;SDS011;68328;35.990;-86.756;2023-04-15T08:57:13;15;;;14;;
55021;SDS011;68328;35.990;-86.756;2023-04-15T08:59:38;15;;;14;;
55021;SDS011;68328;35.990;-86.756;2023-04-15T09:02:04;15;;;14;;
55021;SDS011;68328;35.990;-86.756;2023-04-15T09:04:30;15;;;15;;
55021;SDS011;68328;35.990;-86.756;2023-04-15T09:06:55;13;;;13;;
55021;SDS011;68328;35.990;-86.756;2023-04-15T09:09:20;13;;;13;;
55021;SDS011;68328;35.990;-86.756;2023-04-15T09:11:46;15;;;13;;
55021;SDS011;68328;35.990;-86.756;2023-04-15T09:14:11;11;;;11;;
55021;SDS011;68328;35.990;-86.756;2023-04-15T09:19:05;11;;;11;;
55021;SDS011;68328;35.990;-86.756;2023-04-15T09:21:27;12;;;12;;
55021;SDS011;68328;35.990;-86.756;2023-04-15T09:23:54;15;;;13;;
55021;SDS011;68328;35.990;-86.756;2023-04-15T09:26:18;18;;;18;;
55021;SDS011;68328;35.990;-86.756;2023-04-15T09:28:44;12;;;12;;
55021;SDS011;68328;35.990;-86.756;2023-04-15T09:31:08;14;;;14;;
55021;SDS011;68328;35.990;-86.756;2023-04-15T09:33:34;13;;;13;;
55021;SDS011;68328;35.990;-86.756;2023-04-15T09:36:01;14;;;13;;
55021;SDS011;68328;35.990;-86.756;2023-04-15T09:38:26;14;;;14;;
55021;SDS011;68328;35.990;-86.756;2023-04-15T09:40:51;15;;;15;;
55021;SDS011;68328;35.990;-86.756;2023-04-15T09:43:17;14;;;13;;
55021;SDS011;68328;35.990;-86.756;2023-04-15T09:45:46;14;;;14;;
55021;SDS011;68328;35.990;-86.756;2023-04-15T09:48:16;12;;;11;;
55021;SDS011;68328;35.990;-86.756;2023-04-15T09:50:33;19;;;19;;
55021;SDS011;68328;35.990;-86.756;2023-04-15T09:52:59;14;;;14;;
55021;SDS011;68328;35.990;-86.756;2023-04-15T09:55:24;15;;;15;;
55021;SDS011;68328;35.990;-86.756;2023-04-15T09:57:49;13;;;13;;
55021;SDS011;68328;35.990;-86.756;2023-04-15T10:00:15;14;;;14;;
55021;SDS011;68328;35.990;-86.756;2023-04-15T10:02:40;12;;;12;;
55021;SDS011;68328;35.990;-86.756;2023-04-15T10:05:06;13;;;13;;
55021;SDS011;68328;35.990;-86.756;2023-04-15T10:07:30;16;;;16;;
55021;SDS011;68328;35.990;-86.756;2023-04-15T10:09:56;14;;;14;;
55021;SDS011;68328;35.990;-86.756;2023-04-15T10:12:22;17;;;16;;
55021;SDS011;68328;35.990;-86.756;2023-04-15T10:14:52;16;;;16;;
55021;SDS011;68328;35.990;-86.756;2023-04-15T10:17:13;14;;;14;;
55021;SDS011;68328;35.990;-86.756;2023-04-15T10:19:38;15;;;15;;
55021;SDS011;68328;35.990;-86.756;2023-04-15T10:22:03;17;;;17;;
55021;SDS011;68328;35.990;-86.756;2023-04-15T10:24:29;15;;;15;;
55021;SDS011;68328;35.990;-86.756;2023-04-15T10:26:54;16;;;16;;
55021;SDS011;68328;35.990;-86.756;2023-04-15T10:29:19;10;;;10;;
55021;SDS011;68328;35.990;-86.756;2023-04-15T10:31:44;15;;;14;;
55021;SDS011;68328;35.990;-86.756;2023-04-15T10:34:09;10;;;10;;
55021;SDS011;68328;35.990;-86.756;2023-04-15T10:36:35;18;;;16;;
55021;SDS011;68328;35.990;-86.756;2023-04-15T10:39:01;18;;;18;;
55021;SDS011;68328;35.990;-86.756;2023-04-15T10:41:27;13;;;13;;
55021;SDS011;68328;35.990;-86.756;2023-04-15T10:43:53;11;;;11;;
55021;SDS011;68328;35.990;-86.756;2023-04-15T10:46:20;12;;;12;;
55021;SDS011;68328;35.990;-86.756;2023-04-15T10:48:46;13;;;12;;
55021;SDS011;68328;35.990;-86.756;2023-04-15T10:51:08;9;;;9;;
55021;SDS011;68328;35.990;-86.756;2023-04-15T10:53:34;11;;;10;;
55021;SDS011;68328;35.990;-86.756;2023-04-15T10:55:59;11;;;11;;
55021;SDS011;68328;35.990;-86.756;2023-04-15T10:58:25;12;;;12;;
55021;SDS011;68328;35.990;-86.756;2023-04-15T11:00:54;11;;;11;;
55021;SDS011;68328;35.990;-86.756;2023-04-15T11:03:16;12;;;11;;
55021;SDS011;68328;35.990;-86.756;2023-04-15T11:05:48;12;;;12;;
55021;SDS011;68328;35.990;-86.756;2023-04-15T11:08:08;11;;;11;;
55021;SDS011;68328;35.990;-86.756;2023-04-15T11:13:00;10;;;10;;
55021;SDS011;68328;35.990;-86.756;2023-04-15T11:15:26;14;;;14;;
55021;SDS011;68328;35.990;-86.756;2023-04-15T11:17:50;11;;;11;;
55021;SDS011;68328;35.990;-86.756;2023-04-15T11:20:15;12;;;12;;
55021;SDS011;68328;35.990;-86.756;2023-04-15T11:22:46;18;;;18;;
55021;SDS011;68328;35.990;-86.756;2023-04-15T11:25:07;12;;;12;;
55021;SDS011;68328;35.990;-86.756;2023-04-15T11:27:32;12;;;12;;
55021;SDS011;68328;35.990;-86.756;2023-04-15T11:29:57;12;;;10;;
55021;SDS011;68328;35.990;-86.756;2023-04-15T11:32:23;13;;;13;;
55021;SDS011;68328;35.990;-86.756;2023-04-15T11:34:50;13;;;13;;
55021;SDS011;68328;35.990;-86.756;2023-04-15T11:37:14;11;;;11;;
55021;SDS011;68328;35.990;-86.756;2023-04-15T11:39:40;16;;;16;;
55021;SDS011;68328;35.990;-86.756;2023-04-15T11:44:30;18;;;14;;
55021;SDS011;68328;35.990;-86.756;2023-04-15T11:46:56;17;;;17;;
55021;SDS011;68328;35.990;-86.756;2023-04-15T11:49:27;17;;;17;;
55021;SDS011;68328;35.990;-86.756;2023-04-15T11:51:46;16;;;16;;
55021;SDS011;68328;35.990;-86.756;2023-04-15T11:54:12;21;;;21;;
55021;SDS011;68328;35.990;-86.756;2023-04-15T11:56:37;17;;;16;;
55021;SDS011;68328;35.990;-86.756;2023-04-15T11:59:02;15;;;14;;
55021;SDS011;68328;35.990;-86.756;2023-04-15T12:01:31;15;;;15;;
55021;SDS011;68328;35.990;-86.756;2023-04-15T12:03:53;13;;;13;;
55021;SDS011;68328;35.990;-86.756;2023-04-15T12:06:19;18;;;16;;
55021;SDS011;68328;35.990;-86.756;2023-04-15T12:08:51;17;;;15;;
55021;SDS011;68328;35.990;-86.756;2023-04-15T12:11:10;13;;;13;;
55021;SDS011;68328;35.990;-86.756;2023-04-15T12:13:36;13;;;13;;
55021;SDS011;68328;35.990;-86.756;2023-04-15T12:16:02;16;;;16;;
55021;SDS011;68328;35.990;-86.756;2023-04-15T12:18:27;11;;;10;;
55021;SDS011;68328;35.990;-86.756;2023-04-15T12:20:52;15;;;15;;
55021;SDS011;68328;35.990;-86.756;2023-04-15T12:23:18;9;;;9;;
55021;SDS011;68328;35.990;-86.756;2023-04-15T12:25:50;11;;;10;;
55021;SDS011;68328;35.990;-86.756;2023-04-15T12:28:10;11;;;11;;
55021;SDS011;68328;35.990;-86.756;2023-04-15T12:30:36;13;;;13;;
55021;SDS011;68328;35.990;-86.756;2023-04-15T12:33:01;22;;;20;;
55021;SDS011;68328;35.990;-86.756;2023-04-15T12:35:26;13;;;13;;
55021;SDS011;68328;35.990;-86.756;2023-04-15T12:37:52;13;;;12;;
55021;SDS011;68328;35.990;-86.756;2023-04-15T12:40:16;13;;;13;;
55021;SDS011;68328;35.990;-86.756;2023-04-15T12:42:41;13;;;13;;
55021;SDS011;68328;35.990;-86.756;2023-04-15T12:45:08;12;;;11;;
55021;SDS011;68328;35.990;-86.756;2023-04-15T12:47:32;12;;;12;;
55021;SDS011;68328;35.990;-86.756;2023-04-15T12:49:57;10;;;10;;
55021;SDS011;68328;35.990;-86.756;2023-04-15T12:52:22;12;;;12;;
55021;SDS011;68328;35.990;-86.756;2023-04-15T12:54:48;11;;;11;;
55021;SDS011;68328;35.990;-86.756;2023-04-15T12:57:14;11;;;11;;
55021;SDS011;68328;35.990;-86.756;2023-04-15T12:59:39;13;;;13;;
55021;SDS011;68328;35.990;-86.756;2023-04-15T13:02:05;13;;;11;;
55021;SDS011;68328;35.990;-86.756;2023-04-15T13:04:31;11;;;9;;
55021;SDS011;68328;35.990;-86.756;2023-04-15T13:06:57;14;;;14;;
55021;SDS011;68328;35.990;-86.756;2023-04-15T13:09:22;12;;;10;;
55021;SDS011;68328;35.990;-86.756;2023-04-15T13:11:48;11;;;11;;
55021;SDS011;68328;35.990;-86.756;2023-04-15T13:14:14;11;;;11;;
55021;SDS011;68328;35.990;-86.756;2023-04-15T13:16:40;11;;;11;;
55021;SDS011;68328;35.990;-86.756;2023-04-15T13:19:06;10;;;10;;
55021;SDS011;68328;35.990;-86.756;2023-04-15T13:21:32;14;;;11;;
55021;SDS011;68328;35.990;-86.756;2023-04-15T13:23:57;14;;;14;;
55021;SDS011;68328;35.990;-86.756;2023-04-15T13:26:23;13;;;13;;
55021;SDS011;68328;35.990;-86.756;2023-04-15T13:28:48;14;;;13;;
55021;SDS011;68328;35.990;-86.756;2023-04-15T13:31:14;10;;;10;;
55021;SDS011;68328;35.990;-86.756;2023-04-15T13:33:39;14;;;14;;
55021;SDS011;68328;35.990;-86.756;2023-04-15T13:36:04;11;;;11;;
55021;SDS011;68328;35.990;-86.756;2023-04-15T13:38:29;11;;;11;;
55021;SDS011;68328;35.990;-86.756;2023-04-15T13:40:54;15;;;15;;
55021;SDS011;68328;35.990;-86.756;2023-04-15T13:43:21;9;;;8;;
55021;SDS011;68328;35.990;-86.756;2023-04-15T13:45:45;11;;;11;;
55021;SDS011;68328;35.990;-86.756;2023-04-15T13:48:11;12;;;12;;
55021;SDS011;68328;35.990;-86.756;2023-04-15T13:50:36;13;;;12;;
55021;SDS011;68328;35.990;-86.756;2023-04-15T13:53:02;8;;;8;;
55021;SDS011;68328;35.990;-86.756;2023-04-15T13:55:28;9;;;8;;
55021;SDS011;68328;35.990;-86.756;2023-04-15T13:57:53;8;;;8;;
55021;SDS011;68328;35.990;-86.756;2023-04-15T14:00:18;7;;;7;;
55021;SDS011;68328;35.990;-86.756;2023-04-15T14:02:43;6;;;6;;
55021;SDS011;68328;35.990;-86.756;2023-04-15T14:05:09;5;;;5;;
55021;SDS011;68328;35.990;-86.756;2023-04-15T14:07:35;7;;;7;;
55021;SDS011;68328;35.990;-86.756;2023-04-15T14:09:59;9;;;9;;
55021;SDS011;68328;35.990;-86.756;2023-04-15T14:12:24;6;;;6;;
55021;SDS011;68328;35.990;-86.756;2023-04-15T14:14:50;7;;;7;;
55021;SDS011;68328;35.990;-86.756;2023-04-15T14:17:15;7;;;7;;
55021;SDS011;68328;35.990;-86.756;2023-04-15T14:19:41;6;;;6;;
55021;SDS011;68328;35.990;-86.756;2023-04-15T14:22:06;7;;;7;;
55021;SDS011;68328;35.990;-86.756;2023-04-15T14:24:31;8;;;8;;
55021;SDS011;68328;35.990;-86.756;2023-04-15T14:26:57;6;;;6;;
55021;SDS011;68328;35.990;-86.756;2023-04-15T14:29:21;7;;;7;;
55021;SDS011;68328;35.990;-86.756;2023-04-15T14:31:47;6;;;6;;
55021;SDS011;68328;35.990;-86.756;2023-04-15T14:34:13;6;;;5;;
55021;SDS011;68328;35.990;-86.756;2023-04-15T14:36:37;7;;;7;;
55021;SDS011;68328;35.990;-86.756;2023-04-15T14:39:03;6;;;6;;
55021;SDS011;68328;35.990;-86.756;2023-04-15T14:41:28;6;;;6;;
55021;SDS011;68328;35.990;-86.756;2023-04-15T14:43:54;5;;;5;;
55021;SDS011;68328;35.990;-86.756;2023-04-15T14:46:20;6;;;6;;
55021;SDS011;68328;35.990;-86.756;2023-04-15T14:48:44;6;;;6;;
55021;SDS011;68328;35.990;-86.756;2023-04-15T14:51:10;6;;;6;;
55021;SDS011;68328;35.990;-86.756;2023-04-15T14:53:35;8;;;8;;
55021;SDS011;68328;35.990;-86.756;2023-04-15T14:56:00;5;;;5;;
55021;SDS011;68328;35.990;-86.756;2023-04-15T14:58:26;6;;;6;;
55021;SDS011;68328;35.990;-86.756;2023-04-15T15:00:51;3;;;3;;
55021;SDS011;68328;35.990;-86.756;2023-04-15T15:03:16;4;;;4;;
55021;SDS011;68328;35.990;-86.756;2023-04-15T15:05:44;4;;;4;;
55021;SDS011;68328;35.990;-86.756;2023-04-15T15:08:06;5;;;5;;
55021;SDS011;68328;35.990;-86.756;2023-04-15T15:10:32;7;;;7;;
55021;SDS011;68328;35.990;-86.756;2023-04-15T15:12:58;5;;;5;;
55021;SDS011;68328;35.990;-86.756;2023-04-15T15:15:22;6;;;6;;
55021;SDS011;68328;35.990;-86.756;2023-04-15T15:17:47;6;;;6;;
55021;SDS011;68328;35.990;-86.756;2023-04-15T15:20:13;4;;;4;;
55021;SDS011;68328;35.990;-86.756;2023-04-15T15:22:38;6;;;6;;
55021;SDS011;68328;35.990;-86.756;2023-04-15T15:25:04;5;;;5;;
55021;SDS011;68328;35.990;-86.756;2023-04-15T15:27:29;6;;;6;;